Miranda, South Dakota
Current Conditions -  °F | °C
As of 8:53 AM on Sunday 23 Nov 2014 (Local Time) from KABR Reporting Station
Few Clouds Few Clouds  
Wind Chill: 30°   Ceiling: Unl
Heat Index: 38°   Visibility: 10mi
Dew Point: 32°   Wind: 13mph
Humidity: 79%   Direction: 280°W
Pressure: 29.52"   Gusts: NA
Location:  45.0672°N, 99.0996°W
Report Text: KABR 231453Z AUTO 28011KT 10SM FEW110 03/00 A2952 RMK AO2 SLP007 T00330000 53019
Loading
Personal Weather Stations






























Interactive Weather Map New forecast layout! Learn more

10-Day Weather Forecast

Advertisements
Track Severe Weather on mobile